sensor_id;sensor_type;location;lat;lon;timestamp;pressure;altitude;pressure_sealevel;temperature;humidity
73674;BME280;61975;48.660;10.164;2023-07-31T00:01:14;95736.97;;;15.41;77.96
73674;BME280;61975;48.660;10.164;2023-07-31T00:03:39;95735.38;;;15.40;78.46
73674;BME280;61975;48.660;10.164;2023-07-31T00:06:05;95741.00;;;15.36;80.02
73674;BME280;61975;48.660;10.164;2023-07-31T00:08:30;95735.41;;;15.33;80.76
73674;BME280;61975;48.660;10.164;2023-07-31T00:10:55;95737.41;;;15.32;80.96
73674;BME280;61975;48.660;10.164;2023-07-31T00:13:21;95731.03;;;15.28;82.03
73674;BME280;61975;48.660;10.164;2023-07-31T00:15:46;95722.25;;;15.26;81.60
73674;BME280;61975;48.660;10.164;2023-07-31T00:18:11;95725.91;;;15.23;82.08
73674;BME280;61975;48.660;10.164;2023-07-31T00:20:37;95725.50;;;15.21;81.53
73674;BME280;61975;48.660;10.164;2023-07-31T00:23:02;95724.34;;;15.19;82.80
73674;BME280;61975;48.660;10.164;2023-07-31T00:25:27;95720.34;;;15.16;83.39
73674;BME280;61975;48.660;10.164;2023-07-31T00:27:53;95719.56;;;15.12;83.90
73674;BME280;61975;48.660;10.164;2023-07-31T00:30:18;95733.59;;;15.09;83.51
73674;BME280;61975;48.660;10.164;2023-07-31T00:32:44;95720.84;;;15.04;84.70
73674;BME280;61975;48.660;10.164;2023-07-31T00:35:09;95733.63;;;15.02;85.34
73674;BME280;61975;48.660;10.164;2023-07-31T00:37:34;95726.47;;;14.97;85.65
73674;BME280;61975;48.660;10.164;2023-07-31T00:40:00;95728.88;;;14.95;85.90
73674;BME280;61975;48.660;10.164;2023-07-31T00:42:25;95727.69;;;14.93;86.54
73674;BME280;61975;48.660;10.164;2023-07-31T00:44:51;95718.53;;;14.89;86.55
73674;BME280;61975;48.660;10.164;2023-07-31T00:47:16;95722.16;;;14.86;86.83
73674;BME280;61975;48.660;10.164;2023-07-31T00:49:42;95720.97;;;14.83;86.75
73674;BME280;61975;48.660;10.164;2023-07-31T00:52:08;95712.59;;;14.80;87.59
73674;BME280;61975;48.660;10.164;2023-07-31T00:54:34;95717.00;;;14.77;87.24
73674;BME280;61975;48.660;10.164;2023-07-31T00:56:59;95717.06;;;14.70;87.76
73674;BME280;61975;48.660;10.164;2023-07-31T00:59:25;95717.47;;;14.69;89.13
73674;BME280;61975;48.660;10.164;2023-07-31T01:01:50;95713.50;;;14.66;89.40
73674;BME280;61975;48.660;10.164;2023-07-31T01:04:17;95713.53;;;14.63;89.83
73674;BME280;61975;48.660;10.164;2023-07-31T01:09:43;95721.13;;;14.55;90.03
73674;BME280;61975;48.660;10.164;2023-07-31T01:12:13;95722.75;;;14.53;90.08
73674;BME280;61975;48.660;10.164;2023-07-31T01:14:39;95711.22;;;14.47;90.56
73674;BME280;61975;48.660;10.164;2023-07-31T01:17:05;95708.41;;;14.44;89.96
73674;BME280;61975;48.660;10.164;2023-07-31T01:19:30;95710.41;;;14.43;89.65
73674;BME280;61975;48.660;10.164;2023-07-31T01:27:15;95696.09;;;14.34;91.05
73674;BME280;61975;48.660;10.164;2023-07-31T01:29:56;95696.50;;;14.29;90.97
73674;BME280;61975;48.660;10.164;2023-07-31T01:32:24;95680.16;;;14.28;91.71
73674;BME280;61975;48.660;10.164;2023-07-31T01:34:51;95681.00;;;14.25;92.57
73674;BME280;61975;48.660;10.164;2023-07-31T01:37:17;95686.19;;;14.23;92.23
73674;BME280;61975;48.660;10.164;2023-07-31T01:39:42;95686.16;;;14.19;92.93
73674;BME280;61975;48.660;10.164;2023-07-31T01:42:08;95688.56;;;14.14;93.59
73674;BME280;61975;48.660;10.164;2023-07-31T01:44:33;95683.38;;;14.12;94.18
73674;BME280;61975;48.660;10.164;2023-07-31T01:46:58;95676.22;;;14.11;92.38
73674;BME280;61975;48.660;10.164;2023-07-31T01:49:25;95668.66;;;14.08;92.91
73674;BME280;61975;48.660;10.164;2023-07-31T01:51:50;95670.66;;;14.04;92.42
73674;BME280;61975;48.660;10.164;2023-07-31T01:54:16;95661.91;;;13.99;94.53
73674;BME280;61975;48.660;10.164;2023-07-31T01:56:41;95665.09;;;13.97;93.16
73674;BME280;61975;48.660;10.164;2023-07-31T01:59:07;95665.91;;;13.94;94.18
73674;BME280;61975;48.660;10.164;2023-07-31T02:01:32;95657.16;;;13.92;94.03
73674;BME280;61975;48.660;10.164;2023-07-31T02:03:58;95655.94;;;13.89;94.27
73674;BME280;61975;48.660;10.164;2023-07-31T02:06:23;95665.94;;;13.87;94.47
73674;BME280;61975;48.660;10.164;2023-07-31T02:08:48;95655.19;;;13.85;95.31
73674;BME280;61975;48.660;10.164;2023-07-31T02:11:14;95659.97;;;13.81;96.17
73674;BME280;61975;48.660;10.164;2023-07-31T02:13:40;95660.78;;;13.82;97.00
73674;BME280;61975;48.660;10.164;2023-07-31T02:16:05;95647.63;;;13.79;96.19
73674;BME280;61975;48.660;10.164;2023-07-31T02:18:30;95648.44;;;13.76;96.98
73674;BME280;61975;48.660;10.164;2023-07-31T02:20:56;95646.44;;;13.73;97.83
73674;BME280;61975;48.660;10.164;2023-07-31T02:23:21;95646.44;;;13.73;98.22
73674;BME280;61975;48.660;10.164;2023-07-31T02:25:47;95647.25;;;13.70;98.30
73674;BME280;61975;48.660;10.164;2023-07-31T02:28:12;95648.88;;;13.67;98.92
73674;BME280;61975;48.660;10.164;2023-07-31T02:30:38;95642.09;;;13.65;99.83
73674;BME280;61975;48.660;10.164;2023-07-31T02:33:04;95647.28;;;13.63;100.00
73674;BME280;61975;48.660;10.164;2023-07-31T02:35:30;95643.31;;;13.57;100.00
73674;BME280;61975;48.660;10.164;2023-07-31T02:37:55;95654.88;;;13.59;100.00
73674;BME280;61975;48.660;10.164;2023-07-31T02:40:20;95645.69;;;13.58;100.00
73674;BME280;61975;48.660;10.164;2023-07-31T02:42:46;95640.53;;;13.57;100.00
73674;BME280;61975;48.660;10.164;2023-07-31T02:45:11;95643.31;;;13.57;100.00
73674;BME280;61975;48.660;10.164;2023-07-31T02:47:37;95646.50;;;13.55;100.00
73674;BME280;61975;48.660;10.164;2023-07-31T02:50:03;95645.72;;;13.55;100.00
73674;BME280;61975;48.660;10.164;2023-07-31T02:52:28;95644.13;;;13.54;100.00
73674;BME280;61975;48.660;10.164;2023-07-31T02:54:54;95642.50;;;13.53;100.00
73674;BME280;61975;48.660;10.164;2023-07-31T02:57:19;95636.94;;;13.53;99.93
73674;BME280;61975;48.660;10.164;2023-07-31T02:59:44;95636.16;;;13.52;99.95
73674;BME280;61975;48.660;10.164;2023-07-31T03:02:10;95640.94;;;13.52;100.00
73674;BME280;61975;48.660;10.164;2023-07-31T03:04:36;95639.34;;;13.51;100.00
73674;BME280;61975;48.660;10.164;2023-07-31T03:07:02;95643.34;;;13.50;100.00
73674;BME280;61975;48.660;10.164;2023-07-31T03:09:30;95640.16;;;13.48;99.24
73674;BME280;61975;48.660;10.164;2023-07-31T03:11:56;95643.75;;;13.45;99.22
73674;BME280;61975;48.660;10.164;2023-07-31T03:14:21;95632.19;;;13.43;99.06
73674;BME280;61975;48.660;10.164;2023-07-31T03:16:48;95631.00;;;13.40;99.52
73674;BME280;61975;48.660;10.164;2023-07-31T03:19:13;95631.41;;;13.39;99.40
73674;BME280;61975;48.660;10.164;2023-07-31T03:21:39;95629.00;;;13.37;100.00
73674;BME280;61975;48.660;10.164;2023-07-31T03:24:04;95636.19;;;13.35;100.00
73674;BME280;61975;48.660;10.164;2023-07-31T03:26:31;95635.81;;;13.33;99.89
73674;BME280;61975;48.660;10.164;2023-07-31T03:28:56;95636.22;;;13.31;99.76
73674;BME280;61975;48.660;10.164;2023-07-31T03:31:22;95628.25;;;13.30;98.89
73674;BME280;61975;48.660;10.164;2023-07-31T03:33:47;95623.47;;;13.27;98.12
73674;BME280;61975;48.660;10.164;2023-07-31T03:36:12;95627.47;;;13.26;98.37
73674;BME280;61975;48.660;10.164;2023-07-31T03:38:38;95628.25;;;13.23;98.17
73674;BME280;61975;48.660;10.164;2023-07-31T03:41:03;95635.00;;;13.22;97.89
73674;BME280;61975;48.660;10.164;2023-07-31T03:43:30;95629.81;;;13.20;99.49
73674;BME280;61975;48.660;10.164;2023-07-31T03:45:55;95623.88;;;13.18;99.65
73674;BME280;61975;48.660;10.164;2023-07-31T03:48:21;95625.47;;;13.16;99.53
73674;BME280;61975;48.660;10.164;2023-07-31T03:50:46;95620.31;;;13.14;98.85
73674;BME280;61975;48.660;10.164;2023-07-31T03:53:12;95611.53;;;13.12;97.98
73674;BME280;61975;48.660;10.164;2023-07-31T03:55:37;95603.56;;;13.11;98.02
73674;BME280;61975;48.660;10.164;2023-07-31T03:58:03;95605.97;;;13.09;99.15
73674;BME280;61975;48.660;10.164;2023-07-31T04:00:30;95605.97;;;13.09;99.41
73674;BME280;61975;48.660;10.164;2023-07-31T04:02:55;95614.72;;;13.07;99.51
73674;BME280;61975;48.660;10.164;2023-07-31T04:05:21;95617.13;;;13.02;100.00
73674;BME280;61975;48.660;10.164;2023-07-31T04:07:46;95610.34;;;13.03;100.00
73674;BME280;61975;48.660;10.164;2023-07-31T04:10:11;95619.50;;;13.00;100.00
73674;BME280;61975;48.660;10.164;2023-07-31T04:12:37;95624.28;;;12.99;100.00
73674;BME280;61975;48.660;10.164;2023-07-31T04:15:02;95619.91;;;13.02;100.00
73674;BME280;61975;48.660;10.164;2023-07-31T04:17:28;95632.25;;;13.04;100.00
73674;BME280;61975;48.660;10.164;2023-07-31T04:19:53;95630.66;;;13.07;100.00
73674;BME280;61975;48.660;10.164;2023-07-31T04:22:18;95635.44;;;13.10;100.00
73674;BME280;61975;48.660;10.164;2023-07-31T04:24:44;95627.47;;;13.12;100.00
73674;BME280;61975;48.660;10.164;2023-07-31T04:27:09;95624.28;;;13.17;100.00
73674;BME280;61975;48.660;10.164;2023-07-31T04:29:34;95628.66;;;13.18;100.00
73674;BME280;61975;48.660;10.164;2023-07-31T04:32:00;95625.47;;;13.19;100.00
73674;BME280;61975;48.660;10.164;2023-07-31T04:34:25;95619.88;;;13.23;100.00
73674;BME280;61975;48.660;10.164;2023-07-31T04:36:51;95621.06;;;13.25;100.00
73674;BME280;61975;48.660;10.164;2023-07-31T04:39:16;95621.84;;;13.29;100.00
73674;BME280;61975;48.660;10.164;2023-07-31T04:41:41;95618.66;;;13.31;100.00
73674;BME280;61975;48.660;10.164;2023-07-31T04:44:07;95622.25;;;13.35;100.00
73674;BME280;61975;48.660;10.164;2023-07-31T04:46:32;95618.66;;;13.38;100.00
73674;BME280;61975;48.660;10.164;2023-07-31T04:48:57;95612.66;;;13.43;100.00
73674;BME280;61975;48.660;10.164;2023-07-31T04:51:23;95609.06;;;13.46;100.00
73674;BME280;61975;48.660;10.164;2023-07-31T04:53:48;95607.50;;;13.48;100.00
73674;BME280;61975;48.660;10.164;2023-07-31T04:56:15;95604.28;;;13.53;100.00
73674;BME280;61975;48.660;10.164;2023-07-31T04:58:40;95608.25;;;13.56;100.00
73674;BME280;61975;48.660;10.164;2023-07-31T05:01:06;95610.63;;;13.61;100.00
73674;BME280;61975;48.660;10.164;2023-07-31T05:03:31;95610.22;;;13.66;100.00
73674;BME280;61975;48.660;10.164;2023-07-31T05:05:56;95605.00;;;13.71;100.00
73674;BME280;61975;48.660;10.164;2023-07-31T05:08:22;95608.19;;;13.73;100.00
73674;BME280;61975;48.660;10.164;2023-07-31T05:10:47;95611.75;;;13.81;100.00
73674;BME280;61975;48.660;10.164;2023-07-31T05:13:13;95610.13;;;13.87;100.00
73674;BME280;61975;48.660;10.164;2023-07-31T05:15:40;95608.09;;;13.91;100.00
73674;BME280;61975;48.660;10.164;2023-07-31T05:18:06;95614.88;;;13.97;100.00
73674;BME280;61975;48.660;10.164;2023-07-31T05:20:31;95618.84;;;14.00;100.00
73674;BME280;61975;48.660;10.164;2023-07-31T05:22:57;95619.25;;;14.02;100.00
73674;BME280;61975;48.660;10.164;2023-07-31T05:25:22;95616.81;;;14.07;100.00
73674;BME280;61975;48.660;10.164;2023-07-31T05:27:48;95612.41;;;14.13;100.00
73674;BME280;61975;48.660;10.164;2023-07-31T05:30:13;95610.38;;;14.17;100.00
73674;BME280;61975;48.660;10.164;2023-07-31T05:32:38;95616.75;;;14.21;100.00
73674;BME280;61975;48.660;10.164;2023-07-31T05:35:04;95611.56;;;14.27;100.00
73674;BME280;61975;48.660;10.164;2023-07-31T05:37:30;95623.09;;;14.32;100.00
73674;BME280;61975;48.660;10.164;2023-07-31T05:39:55;95616.28;;;14.37;100.00
73674;BME280;61975;48.660;10.164;2023-07-31T05:42:20;95623.44;;;14.41;100.00
73674;BME280;61975;48.660;10.164;2023-07-31T05:44:46;95620.22;;;14.46;100.00
73674;BME280;61975;48.660;10.164;2023-07-31T05:47:12;95614.22;;;14.51;100.00
73674;BME280;61975;48.660;10.164;2023-07-31T05:49:37;95614.56;;;14.57;100.00
73674;BME280;61975;48.660;10.164;2023-07-31T05:52:03;95609.34;;;14.62;100.00
73674;BME280;61975;48.660;10.164;2023-07-31T05:54:29;95605.69;;;14.69;100.00
73674;BME280;61975;48.660;10.164;2023-07-31T05:56:54;95604.88;;;14.75;100.00
73674;BME280;61975;48.660;10.164;2023-07-31T05:59:20;95603.59;;;14.83;100.00
73674;BME280;61975;48.660;10.164;2023-07-31T06:01:45;95600.75;;;14.90;100.00
73674;BME280;61975;48.660;10.164;2023-07-31T06:04:10;95608.31;;;14.93;100.00
73674;BME280;61975;48.660;10.164;2023-07-31T06:06:36;95601.84;;;15.03;100.00
73674;BME280;61975;48.660;10.164;2023-07-31T06:09:01;95597.38;;;15.09;100.00
73674;BME280;61975;48.660;10.164;2023-07-31T06:11:28;95603.28;;;15.18;100.00
73674;BME280;61975;48.660;10.164;2023-07-31T06:13:54;95601.63;;;15.24;100.00
73674;BME280;61975;48.660;10.164;2023-07-31T06:16:19;95607.53;;;15.33;100.00
73674;BME280;61975;48.660;10.164;2023-07-31T06:18:46;95598.72;;;15.38;100.00
73674;BME280;61975;48.660;10.164;2023-07-31T06:21:11;95600.66;;;15.45;100.00
73674;BME280;61975;48.660;10.164;2023-07-31T06:23:37;95601.38;;;15.52;100.00
73674;BME280;61975;48.660;10.164;2023-07-31T06:26:02;95596.50;;;15.60;100.00
73674;BME280;61975;48.660;10.164;2023-07-31T06:28:28;95595.56;;;15.70;99.56
73674;BME280;61975;48.660;10.164;2023-07-31T06:30:54;95588.28;;;15.79;99.59
73674;BME280;61975;48.660;10.164;2023-07-31T06:33:20;95592.97;;;15.89;99.82
73674;BME280;61975;48.660;10.164;2023-07-31T06:35:45;95586.41;;;15.99;98.72
73674;BME280;61975;48.660;10.164;2023-07-31T06:38:11;95586.34;;;16.06;98.46
73674;BME280;61975;48.660;10.164;2023-07-31T06:40:36;95586.28;;;16.10;98.84
73674;BME280;61975;48.660;10.164;2023-07-31T06:43:01;95576.56;;;16.18;98.07
73674;BME280;61975;48.660;10.164;2023-07-31T06:45:33;95583.25;;;16.27;97.83
73674;BME280;61975;48.660;10.164;2023-07-31T06:47:59;95591.50;;;16.38;97.78
73674;BME280;61975;48.660;10.164;2023-07-31T06:50:27;95593.81;;;16.47;97.54
73674;BME280;61975;48.660;10.164;2023-07-31T06:52:52;95582.06;;;16.55;96.25
73674;BME280;61975;48.660;10.164;2023-07-31T06:55:19;95582.03;;;16.59;96.05
73674;BME280;61975;48.660;10.164;2023-07-31T06:57:46;95575.84;;;16.71;95.49
73674;BME280;61975;48.660;10.164;2023-07-31T07:00:12;95576.53;;;16.78;94.55
73674;BME280;61975;48.660;10.164;2023-07-31T07:02:38;95578.72;;;16.90;93.75
73674;BME280;61975;48.660;10.164;2023-07-31T07:05:04;95582.56;;;17.00;94.63
73674;BME280;61975;48.660;10.164;2023-07-31T07:07:29;95579.50;;;17.14;93.39
73674;BME280;61975;48.660;10.164;2023-07-31T07:09:54;95583.28;;;17.27;91.61
73674;BME280;61975;48.660;10.164;2023-07-31T07:12:20;95585.13;;;17.37;90.30
73674;BME280;61975;48.660;10.164;2023-07-31T07:14:45;95581.78;;;17.45;88.32
73674;BME280;61975;48.660;10.164;2023-07-31T07:17:13;95584.84;;;17.54;88.46
73674;BME280;61975;48.660;10.164;2023-07-31T07:19:40;95592.69;;;17.63;87.06
73674;BME280;61975;48.660;10.164;2023-07-31T07:22:06;95587.72;;;17.70;86.74
73674;BME280;61975;48.660;10.164;2023-07-31T07:24:32;95583.16;;;17.80;85.29
73674;BME280;61975;48.660;10.164;2023-07-31T07:26:57;95581.81;;;17.84;83.91
73674;BME280;61975;48.660;10.164;2023-07-31T07:29:22;95576.88;;;17.92;83.46
73674;BME280;61975;48.660;10.164;2023-07-31T07:31:48;95577.97;;;17.98;82.91
73674;BME280;61975;48.660;10.164;2023-07-31T07:34:13;95576.28;;;18.00;81.22
73674;BME280;61975;48.660;10.164;2023-07-31T07:36:39;95577.28;;;18.10;78.65
73674;BME280;61975;48.660;10.164;2023-07-31T07:39:04;95579.94;;;18.17;78.59
73674;BME280;61975;48.660;10.164;2023-07-31T07:41:30;95583.03;;;18.22;78.79
73674;BME280;61975;48.660;10.164;2023-07-31T07:43:55;95574.00;;;18.15;73.59
73674;BME280;61975;48.660;10.164;2023-07-31T07:46:21;95567.34;;;18.25;72.29
73674;BME280;61975;48.660;10.164;2023-07-31T07:48:46;95571.38;;;18.24;70.47
73674;BME280;61975;48.660;10.164;2023-07-31T07:51:11;95578.44;;;18.32;70.37
73674;BME280;61975;48.660;10.164;2023-07-31T07:53:37;95581.13;;;18.39;70.13
73674;BME280;61975;48.660;10.164;2023-07-31T07:56:02;95565.41;;;18.22;66.85
73674;BME280;61975;48.660;10.164;2023-07-31T07:58:27;95563.91;;;18.33;67.61
73674;BME280;61975;48.660;10.164;2023-07-31T08:00:53;95579.88;;;18.40;66.37
73674;BME280;61975;48.660;10.164;2023-07-31T08:03:18;95578.31;;;18.39;64.99
73674;BME280;61975;48.660;10.164;2023-07-31T08:05:44;95561.78;;;18.41;64.49
73674;BME280;61975;48.660;10.164;2023-07-31T08:08:14;95564.00;;;18.49;64.19
73674;BME280;61975;48.660;10.164;2023-07-31T08:10:41;95560.69;;;18.54;63.22
73674;BME280;61975;48.660;10.164;2023-07-31T08:13:06;95562.31;;;18.36;63.49
73674;BME280;61975;48.660;10.164;2023-07-31T08:15:31;95564.38;;;18.32;63.53
73674;BME280;61975;48.660;10.164;2023-07-31T08:17:57;95555.31;;;18.24;64.00
73674;BME280;61975;48.660;10.164;2023-07-31T08:20:22;95567.97;;;18.32;64.43
73674;BME280;61975;48.660;10.164;2023-07-31T08:22:48;95567.69;;;18.27;63.79
73674;BME280;61975;48.660;10.164;2023-07-31T08:25:14;95567.06;;;18.39;70.78
73674;BME280;61975;48.660;10.164;2023-07-31T08:27:43;95561.91;;;18.34;64.67
73674;BME280;61975;48.660;10.164;2023-07-31T08:30:09;95558.09;;;18.44;65.38
73674;BME280;61975;48.660;10.164;2023-07-31T08:32:34;95559.25;;;18.46;64.31
73674;BME280;61975;48.660;10.164;2023-07-31T08:34:59;95560.97;;;18.60;64.15
73674;BME280;61975;48.660;10.164;2023-07-31T08:37:25;95558.59;;;18.58;63.43
73674;BME280;61975;48.660;10.164;2023-07-31T08:39:50;95555.50;;;18.69;63.32
73674;BME280;61975;48.660;10.164;2023-07-31T08:42:16;95555.88;;;18.71;62.36
73674;BME280;61975;48.660;10.164;2023-07-31T08:44:43;95554.13;;;18.77;62.71
73674;BME280;61975;48.660;10.164;2023-07-31T08:47:09;95558.50;;;18.62;60.71
73674;BME280;61975;48.660;10.164;2023-07-31T08:49:37;95555.69;;;18.62;60.33
73674;BME280;61975;48.660;10.164;2023-07-31T08:52:03;95538.19;;;18.70;61.12
73674;BME280;61975;48.660;10.164;2023-07-31T08:54:29;95536.19;;;18.87;61.02
73674;BME280;61975;48.660;10.164;2023-07-31T08:56:57;95533.47;;;18.99;58.69
73674;BME280;61975;48.660;10.164;2023-07-31T08:59:23;95534.06;;;19.07;58.43
73674;BME280;61975;48.660;10.164;2023-07-31T09:01:53;95545.69;;;19.09;58.40
73674;BME280;61975;48.660;10.164;2023-07-31T09:04:19;95523.63;;;19.08;57.88
73674;BME280;61975;48.660;10.164;2023-07-31T09:06:47;95528.81;;;19.09;58.33
73674;BME280;61975;48.660;10.164;2023-07-31T09:09:13;95517.75;;;19.02;58.96
73674;BME280;61975;48.660;10.164;2023-07-31T09:11:39;95509.19;;;19.05;59.00
73674;BME280;61975;48.660;10.164;2023-07-31T09:14:05;95509.00;;;19.13;59.11
73674;BME280;61975;48.660;10.164;2023-07-31T09:16:34;95502.25;;;19.26;59.45
73674;BME280;61975;48.660;10.164;2023-07-31T09:18:59;95510.06;;;19.35;58.66
73674;BME280;61975;48.660;10.164;2023-07-31T09:21:27;95505.22;;;19.35;58.46
73674;BME280;61975;48.660;10.164;2023-07-31T09:23:53;95499.38;;;19.42;57.49
73674;BME280;61975;48.660;10.164;2023-07-31T09:26:35;95516.81;;;19.53;58.46
73674;BME280;61975;48.660;10.164;2023-07-31T09:29:04;95507.69;;;19.62;57.97
73674;BME280;61975;48.660;10.164;2023-07-31T09:31:48;95504.44;;;19.63;57.15
73674;BME280;61975;48.660;10.164;2023-07-31T09:34:13;95503.03;;;19.71;57.48
73674;BME280;61975;48.660;10.164;2023-07-31T09:36:47;95507.69;;;19.90;57.87
73674;BME280;61975;48.660;10.164;2023-07-31T09:39:14;95506.34;;;19.95;56.95
73674;BME280;61975;48.660;10.164;2023-07-31T09:41:47;95500.94;;;20.00;57.48
73674;BME280;61975;48.660;10.164;2023-07-31T09:44:13;95499.16;;;20.06;57.03
73674;BME280;61975;48.660;10.164;2023-07-31T09:46:38;95494.03;;;20.17;55.34
73674;BME280;61975;48.660;10.164;2023-07-31T09:51:30;95505.53;;;20.35;55.62
73674;BME280;61975;48.660;10.164;2023-07-31T09:53:56;95494.16;;;20.51;55.50
73674;BME280;61975;48.660;10.164;2023-07-31T09:56:23;95486.28;;;20.59;54.23
73674;BME280;61975;48.660;10.164;2023-07-31T09:58:48;95487.06;;;20.59;53.76
73674;BME280;61975;48.660;10.164;2023-07-31T10:01:14;95462.69;;;20.65;53.65
73674;BME280;61975;48.660;10.164;2023-07-31T10:03:40;95484.66;;;20.70;53.17
73674;BME280;61975;48.660;10.164;2023-07-31T10:06:09;95475.31;;;20.73;52.98
73674;BME280;61975;48.660;10.164;2023-07-31T10:08:36;95475.75;;;20.84;53.01
73674;BME280;61975;48.660;10.164;2023-07-31T10:11:04;95468.75;;;20.89;52.64
73674;BME280;61975;48.660;10.164;2023-07-31T10:13:30;95452.72;;;20.98;52.54
73674;BME280;61975;48.660;10.164;2023-07-31T10:15:59;95449.00;;;21.01;51.85
73674;BME280;61975;48.660;10.164;2023-07-31T10:18:26;95449.44;;;21.00;51.64
73674;BME280;61975;48.660;10.164;2023-07-31T10:20:52;95444.38;;;20.95;51.19
73674;BME280;61975;48.660;10.164;2023-07-31T10:23:18;95448.88;;;21.05;51.58
73674;BME280;61975;48.660;10.164;2023-07-31T10:25:44;95450.41;;;21.18;51.00
73674;BME280;61975;48.660;10.164;2023-07-31T10:28:10;95436.59;;;21.33;50.46
73674;BME280;61975;48.660;10.164;2023-07-31T10:30:37;95433.38;;;21.43;50.38
73674;BME280;61975;48.660;10.164;2023-07-31T10:33:04;95426.75;;;21.37;49.28
73674;BME280;61975;48.660;10.164;2023-07-31T10:35:30;95417.09;;;21.26;49.75
73674;BME280;61975;48.660;10.164;2023-07-31T10:38:09;95414.91;;;21.30;50.72
73674;BME280;61975;48.660;10.164;2023-07-31T10:40:35;95407.63;;;21.41;51.05
73674;BME280;61975;48.660;10.164;2023-07-31T10:43:01;95413.69;;;21.52;51.20
73674;BME280;61975;48.660;10.164;2023-07-31T10:45:42;95410.25;;;21.57;49.86
73674;BME280;61975;48.660;10.164;2023-07-31T10:48:15;95399.66;;;21.71;49.54
73674;BME280;61975;48.660;10.164;2023-07-31T10:50:52;95380.31;;;21.82;50.16
73674;BME280;61975;48.660;10.164;2023-07-31T10:53:30;95392.59;;;21.88;49.97
73674;BME280;61975;48.660;10.164;2023-07-31T10:56:00;95387.59;;;21.92;50.45
73674;BME280;61975;48.660;10.164;2023-07-31T10:58:25;95378.47;;;21.88;50.23
73674;BME280;61975;48.660;10.164;2023-07-31T11:00:55;95391.94;;;21.84;50.46
73674;BME280;61975;48.660;10.164;2023-07-31T11:03:25;95366.56;;;21.71;50.05
73674;BME280;61975;48.660;10.164;2023-07-31T11:06:03;95370.13;;;21.84;50.81
73674;BME280;61975;48.660;10.164;2023-07-31T11:08:33;95359.66;;;21.94;50.58
73674;BME280;61975;48.660;10.164;2023-07-31T11:15:53;95367.47;;;22.20;50.68
73674;BME280;61975;48.660;10.164;2023-07-31T11:18:19;95372.84;;;22.27;49.59
73674;BME280;61975;48.660;10.164;2023-07-31T11:20:44;95372.03;;;22.27;49.92
73674;BME280;61975;48.660;10.164;2023-07-31T11:23:10;95380.06;;;22.28;49.79
73674;BME280;61975;48.660;10.164;2023-07-31T11:25:38;95371.38;;;22.14;48.98
73674;BME280;61975;48.660;10.164;2023-07-31T11:28:14;95369.19;;;22.18;49.61
73674;BME280;61975;48.660;10.164;2023-07-31T11:30:40;95368.41;;;22.17;49.60
73674;BME280;61975;48.660;10.164;2023-07-31T11:33:07;95384.50;;;22.38;50.13
73674;BME280;61975;48.660;10.164;2023-07-31T11:35:41;95366.59;;;22.41;49.23
73674;BME280;61975;48.660;10.164;2023-07-31T11:38:07;95395.13;;;22.56;48.24
73674;BME280;61975;48.660;10.164;2023-07-31T11:40:42;95360.16;;;22.41;47.52
73674;BME280;61975;48.660;10.164;2023-07-31T11:43:08;95352.63;;;22.47;47.44
73674;BME280;61975;48.660;10.164;2023-07-31T11:45:34;95358.03;;;22.54;47.17
73674;BME280;61975;48.660;10.164;2023-07-31T11:48:00;95369.03;;;22.61;47.51
73674;BME280;61975;48.660;10.164;2023-07-31T11:50:26;95364.97;;;22.71;47.69
73674;BME280;61975;48.660;10.164;2023-07-31T11:53:00;95356.81;;;22.73;47.72
73674;BME280;61975;48.660;10.164;2023-07-31T11:55:26;95365.34;;;22.91;47.73
73674;BME280;61975;48.660;10.164;2023-07-31T11:57:52;95365.66;;;23.02;47.31
73674;BME280;61975;48.660;10.164;2023-07-31T12:00:19;95362.97;;;23.07;47.33
73674;BME280;61975;48.660;10.164;2023-07-31T12:02:45;95356.59;;;23.25;47.10
73674;BME280;61975;48.660;10.164;2023-07-31T12:05:12;95344.94;;;23.32;47.36
73674;BME280;61975;48.660;10.164;2023-07-31T12:07:53;95348.38;;;23.27;46.46
73674;BME280;61975;48.660;10.164;2023-07-31T12:10:30;95348.41;;;23.45;46.82
73674;BME280;61975;48.660;10.164;2023-07-31T12:13:10;95332.59;;;23.62;46.91
73674;BME280;61975;48.660;10.164;2023-07-31T12:15:43;95344.72;;;23.71;46.05
73674;BME280;61975;48.660;10.164;2023-07-31T12:18:15;95334.94;;;23.72;46.48
73674;BME280;61975;48.660;10.164;2023-07-31T12:20:48;95335.56;;;23.76;45.51
73674;BME280;61975;48.660;10.164;2023-07-31T12:25:40;95321.25;;;23.80;45.95
73674;BME280;61975;48.660;10.164;2023-07-31T12:28:07;95312.09;;;23.94;45.87
73674;BME280;61975;48.660;10.164;2023-07-31T12:30:37;95313.00;;;23.91;45.58
73674;BME280;61975;48.660;10.164;2023-07-31T12:33:12;95325.94;;;24.01;45.84
73674;BME280;61975;48.660;10.164;2023-07-31T12:35:41;95320.72;;;23.99;45.81
73674;BME280;61975;48.660;10.164;2023-07-31T12:38:06;95319.47;;;24.00;46.26
73674;BME280;61975;48.660;10.164;2023-07-31T12:40:32;95313.63;;;24.04;45.89
73674;BME280;61975;48.660;10.164;2023-07-31T12:43:00;95318.50;;;24.03;45.75
73674;BME280;61975;48.660;10.164;2023-07-31T12:45:25;95318.38;;;23.98;45.83
73674;BME280;61975;48.660;10.164;2023-07-31T12:47:52;95328.47;;;23.81;45.52
73674;BME280;61975;48.660;10.164;2023-07-31T12:50:17;95317.81;;;23.58;46.54
73674;BME280;61975;48.660;10.164;2023-07-31T12:52:42;95306.50;;;23.40;46.93
73674;BME280;61975;48.660;10.164;2023-07-31T12:55:08;95303.34;;;23.47;47.02
73674;BME280;61975;48.660;10.164;2023-07-31T12:57:34;95306.19;;;23.47;46.78
73674;BME280;61975;48.660;10.164;2023-07-31T12:59:59;95293.75;;;23.53;47.57
73674;BME280;61975;48.660;10.164;2023-07-31T13:02:24;95292.13;;;23.70;47.11